Time;durP1;ratioP1;P1;durP2;ratioP2;P2;SDS_P1;SDS_P2;PMS_P1;PMS_P2;Temp;Humidity;BMP_temperature;BMP_pressure;BME280_temperature;BME280_humidity;BME280_pressure;Samples;Min_cycle;Max_cycle;Signal;HPM_P1;HPM_P2
2022/04/19 00:00:29;;;;;;;11.80;8.60;;;9.90;99.90;;;;;;5089160;28;20122;-70
2022/04/19 00:02:55;;;;;;;11.25;8.18;;;9.90;99.90;;;;;;5087790;28;20054;-70
2022/04/19 00:05:21;;;;;;;16.58;8.73;;;9.80;99.90;;;;;;5086495;28;20044;-70
2022/04/19 00:07:47;;;;;;;10.43;8.70;;;9.80;99.90;;;;;;5088594;28;20032;-70
2022/04/19 00:10:12;;;;;;;12.63;8.75;;;9.80;99.90;;;;;;5090492;28;20411;-70
2022/04/19 00:12:38;;;;;;;11.43;8.80;;;9.80;99.90;;;;;;5082698;28;20175;-70
2022/04/19 00:15:05;;;;;;;12.45;8.35;;;9.70;99.90;;;;;;5090482;28;20093;-69
2022/04/19 00:17:31;;;;;;;11.88;8.93;;;9.70;99.90;;;;;;5086697;28;20438;-70
2022/04/19 00:19:57;;;;;;;11.95;8.73;;;9.60;99.90;;;;;;5089955;28;20047;-71
2022/04/19 00:22:22;;;;;;;12.48;8.85;;;9.60;99.90;;;;;;5088921;28;20131;-70
2022/04/19 00:24:48;;;;;;;12.90;8.93;;;9.50;99.90;;;;;;5086974;28;20073;-71
2022/04/19 00:27:13;;;;;;;13.27;9.57;;;9.50;99.90;;;;;;5090645;28;20036;-71
2022/04/19 00:29:41;;;;;;;13.02;9.60;;;9.50;99.90;;;;;;5088733;28;20443;-70
2022/04/19 00:32:11;;;;;;;11.85;8.68;;;9.40;99.90;;;;;;5088434;28;20111;-70
2022/04/19 00:34:38;;;;;;;12.65;8.88;;;9.40;99.90;;;;;;5087938;28;20047;-70
2022/04/19 00:37:05;;;;;;;11.15;8.70;;;9.40;99.90;;;;;;5085782;28;20055;-70
2022/04/19 00:39:30;;;;;;;13.23;9.40;;;9.30;99.90;;;;;;5087396;28;20395;-71
2022/04/19 00:41:56;;;;;;;10.48;8.55;;;9.30;99.90;;;;;;5089665;28;20051;-71
2022/04/19 00:44:25;;;;;;;11.57;8.73;;;9.30;99.90;;;;;;5088400;28;20122;-71
2022/04/19 00:46:51;;;;;;;11.07;8.10;;;9.20;99.90;;;;;;5090004;28;20047;-71
2022/04/19 00:49:17;;;;;;;15.20;8.90;;;9.20;99.90;;;;;;5087585;28;20073;-70
2022/04/19 00:51:44;;;;;;;12.73;9.05;;;9.20;99.90;;;;;;5083208;28;20040;-71
2022/04/19 00:54:11;;;;;;;11.50;8.55;;;9.10;99.90;;;;;;5089099;28;20051;-69
2022/04/19 00:56:37;;;;;;;12.00;8.63;;;9.10;99.90;;;;;;5088085;28;20110;-70
2022/04/19 00:59:04;;;;;;;10.30;7.97;;;9.10;99.90;;;;;;5089580;28;20535;-70
2022/04/19 01:01:30;;;;;;;13.23;9.07;;;9.10;99.90;;;;;;5071814;28;20162;-70
2022/04/19 01:03:57;;;;;;;10.60;8.10;;;9.00;99.90;;;;;;5089706;28;20115;-70
2022/04/19 01:06:22;;;;;;;11.70;8.77;;;9.00;99.90;;;;;;5084484;28;20106;-70
2022/04/19 01:08:48;;;;;;;12.23;8.38;;;8.90;99.90;;;;;;5087680;28;21782;-71
2022/04/19 01:14:02;;;;;;;12.45;8.35;;;8.90;99.90;;;;;;5088275;28;20050;-71
2022/04/19 01:16:27;;;;;;;11.77;8.35;;;8.80;99.90;;;;;;5087766;28;20040;-70
2022/04/19 01:18:53;;;;;;;11.68;8.38;;;8.80;99.90;;;;;;5085098;28;20050;-70
2022/04/19 01:21:19;;;;;;;12.85;8.48;;;8.80;99.90;;;;;;5087017;28;20115;-71
2022/04/19 01:23:45;;;;;;;15.40;9.05;;;8.70;99.90;;;;;;5088269;28;20479;-70
2022/04/19 01:26:10;;;;;;;13.38;8.38;;;8.70;99.90;;;;;;5087439;28;20040;-70
2022/04/19 01:28:36;;;;;;;13.45;9.02;;;8.70;99.90;;;;;;5085486;28;20500;-70
2022/04/19 01:31:03;;;;;;;14.07;8.77;;;8.60;99.90;;;;;;5088695;28;20036;-70
2022/04/19 01:33:28;;;;;;;13.23;8.88;;;8.60;99.90;;;;;;5087293;28;20112;-70
2022/04/19 01:35:54;;;;;;;14.60;9.40;;;8.50;99.90;;;;;;5088433;28;20044;-70
2022/04/19 01:38:20;;;;;;;12.80;8.98;;;8.50;99.90;;;;;;5085072;28;20040;-69
2022/04/19 01:40:46;;;;;;;14.25;9.60;;;8.50;99.90;;;;;;5087209;28;20036;-71
2022/04/19 01:43:11;;;;;;;15.07;10.25;;;8.50;99.90;;;;;;5085115;28;20096;-70
2022/04/19 01:45:38;;;;;;;16.02;9.80;;;8.40;99.90;;;;;;5081704;28;20084;-70
2022/04/19 01:48:04;;;;;;;13.18;8.98;;;8.40;99.90;;;;;;5088451;28;20120;-70
2022/04/19 01:50:30;;;;;;;14.75;9.73;;;8.30;99.90;;;;;;5084519;28;20074;-70
2022/04/19 01:52:58;;;;;;;13.77;9.23;;;8.30;99.90;;;;;;5086608;28;20071;-70
2022/04/19 01:55:24;;;;;;;14.68;9.65;;;8.30;99.90;;;;;;5088811;28;20119;-70
2022/04/19 01:57:54;;;;;;;15.63;10.27;;;8.30;99.90;;;;;;5090755;28;20047;-69
2022/04/19 02:00:22;;;;;;;13.43;9.27;;;8.30;99.90;;;;;;5088863;28;20032;-70
2022/04/19 02:02:48;;;;;;;13.85;9.77;;;8.20;99.90;;;;;;5085636;28;20040;-70
2022/04/19 02:05:15;;;;;;;14.18;9.38;;;8.10;99.90;;;;;;5088560;28;20044;-70
2022/04/19 02:07:43;;;;;;;14.13;10.05;;;8.20;99.90;;;;;;5088800;28;20086;-69
2022/04/19 02:10:11;;;;;;;14.30;9.55;;;8.10;99.90;;;;;;5086013;28;20054;-70
2022/04/19 02:12:38;;;;;;;14.40;9.93;;;8.10;99.90;;;;;;5087516;28;20480;-70
2022/04/19 02:15:05;;;;;;;13.85;9.73;;;8.10;99.90;;;;;;5085750;28;20500;-70
2022/04/19 02:17:30;;;;;;;14.10;10.15;;;8.00;99.90;;;;;;5088161;28;20425;-70
2022/04/19 02:20:05;;;;;;;13.80;10.05;;;8.00;99.90;;;;;;5085050;28;20040;-69
2022/04/19 02:22:34;;;;;;;14.65;9.57;;;8.00;99.90;;;;;;5086906;28;20499;-70
2022/04/19 02:25:00;;;;;;;14.50;9.77;;;7.90;99.90;;;;;;5087767;28;20040;-70
2022/04/19 02:27:27;;;;;;;15.35;9.90;;;7.90;99.90;;;;;;5088270;28;20077;-70
2022/04/19 02:29:54;;;;;;;13.93;9.27;;;7.90;99.90;;;;;;5087034;28;20040;-70
2022/04/19 02:32:20;;;;;;;14.35;9.27;;;7.90;99.90;;;;;;5086112;28;20055;-70
2022/04/19 02:34:46;;;;;;;11.80;8.55;;;7.90;99.90;;;;;;5086874;28;20040;-70
2022/04/19 02:37:13;;;;;;;13.10;8.75;;;7.90;99.90;;;;;;5079267;28;20082;-69
2022/04/19 02:39:38;;;;;;;12.52;9.02;;;7.80;99.90;;;;;;5084278;28;20072;-70
2022/04/19 02:42:05;;;;;;;15.55;9.50;;;7.80;99.90;;;;;;5087307;28;20058;-69
2022/04/19 02:44:31;;;;;;;14.95;10.15;;;7.70;99.90;;;;;;5082477;28;20067;-70
2022/04/19 02:46:56;;;;;;;13.57;9.88;;;7.70;99.90;;;;;;5083893;28;20534;-70
2022/04/19 02:49:22;;;;;;;16.48;10.57;;;7.60;99.90;;;;;;5087378;28;20036;-70
2022/04/19 02:51:47;;;;;;;18.10;11.75;;;7.60;99.90;;;;;;5083619;28;20050;-70
2022/04/19 02:54:13;;;;;;;16.23;11.02;;;7.60;99.90;;;;;;5084971;28;20146;-70
2022/04/19 02:56:39;;;;;;;18.20;12.23;;;7.50;99.90;;;;;;5083696;28;20059;-70
2022/04/19 02:59:05;;;;;;;21.85;12.68;;;7.50;99.90;;;;;;5082751;28;20060;-70
2022/04/19 03:01:30;;;;;;;19.13;12.85;;;7.50;99.90;;;;;;5084753;28;20511;-70
2022/04/19 03:03:57;;;;;;;21.20;12.90;;;7.50;99.90;;;;;;5085431;28;20392;-69
2022/04/19 03:06:23;;;;;;;19.30;13.10;;;7.40;99.90;;;;;;5083649;28;20121;-69
2022/04/19 03:08:49;;;;;;;20.23;12.70;;;7.40;99.90;;;;;;5084029;28;20064;-70
2022/04/19 03:11:15;;;;;;;17.75;12.57;;;7.40;99.90;;;;;;5080197;28;20118;-69
2022/04/19 03:13:41;;;;;;;18.23;12.07;;;7.40;99.90;;;;;;5081740;28;20032;-70
2022/04/19 03:16:06;;;;;;;19.67;12.88;;;7.30;99.90;;;;;;5080463;28;20037;-70
2022/04/19 03:18:32;;;;;;;17.70;12.18;;;7.30;99.90;;;;;;5083015;28;20047;-69
2022/04/19 03:21:01;;;;;;;17.95;12.40;;;7.30;99.90;;;;;;5081448;28;20043;-69
2022/04/19 03:28:56;;;;;;;16.55;11.68;;;7.20;99.90;;;;;;5081707;28;20081;-70
2022/04/19 03:31:22;;;;;;;16.95;11.52;;;7.20;99.90;;;;;;5078954;28;20048;-69
2022/04/19 03:33:52;;;;;;;14.57;10.95;;;7.20;99.90;;;;;;5087749;28;20068;-70
2022/04/19 03:36:19;;;;;;;13.50;10.88;;;7.10;99.90;;;;;;5085099;28;20036;-70
2022/04/19 03:38:44;;;;;;;14.77;10.85;;;7.10;99.90;;;;;;5085867;28;20056;-70
2022/04/19 03:41:10;;;;;;;16.83;10.48;;;7.10;99.90;;;;;;5085020;28;20059;-70
2022/04/19 03:43:37;;;;;;;16.95;10.65;;;7.10;99.90;;;;;;5081108;28;20478;-71
2022/04/19 03:46:02;;;;;;;13.48;10.07;;;7.10;99.90;;;;;;5083753;28;20493;-71
2022/04/19 03:48:28;;;;;;;13.95;10.18;;;7.10;99.90;;;;;;5091386;28;20040;-69
2022/04/19 03:50:54;;;;;;;14.15;10.02;;;7.00;99.90;;;;;;5088826;28;20047;-70
2022/04/19 03:53:20;;;;;;;14.85;10.07;;;7.00;99.90;;;;;;5091416;28;20514;-70
2022/04/19 03:55:45;;;;;;;14.82;10.05;;;7.00;99.90;;;;;;5088280;28;20044;-69
2022/04/19 03:58:11;;;;;;;14.02;9.13;;;7.00;99.90;;;;;;5090891;28;20483;-70
2022/04/19 04:00:36;;;;;;;12.13;9.05;;;7.00;99.90;;;;;;5084379;28;20040;-70
2022/04/19 04:03:02;;;;;;;13.48;9.70;;;6.90;99.90;;;;;;5086782;28;20792;-70
2022/04/19 04:05:29;;;;;;;12.30;9.52;;;6.90;99.90;;;;;;5088247;28;20104;-69
2022/04/19 04:07:58;;;;;;;12.75;9.38;;;6.90;99.90;;;;;;5086229;28;20128;-69
2022/04/19 04:10:24;;;;;;;15.65;9.25;;;6.90;99.90;;;;;;5088823;28;20032;-69
2022/04/19 04:12:49;;;;;;;13.45;8.88;;;6.80;99.90;;;;;;5088678;28;20127;-69
2022/04/19 04:15:15;;;;;;;14.77;9.77;;;6.80;99.90;;;;;;5084154;28;20227;-69
2022/04/19 04:17:41;;;;;;;13.93;8.80;;;6.80;99.90;;;;;;5087535;28;20452;-70
2022/04/19 04:20:07;;;;;;;13.30;9.45;;;6.80;99.90;;;;;;5088676;28;20378;-70
2022/04/19 04:22:33;;;;;;;13.75;9.27;;;6.80;99.90;;;;;;5085843;28;20055;-69
2022/04/19 04:24:58;;;;;;;14.48;9.60;;;6.70;99.90;;;;;;5087457;28;20040;-69
2022/04/19 04:27:24;;;;;;;13.23;9.30;;;6.60;99.90;;;;;;5083864;28;20032;-70
2022/04/19 04:29:50;;;;;;;14.73;10.65;;;6.60;99.90;;;;;;5085097;28;20032;-74
2022/04/19 04:32:16;;;;;;;13.90;8.80;;;6.60;99.90;;;;;;5083088;28;20470;-71
2022/04/19 04:34:42;;;;;;;14.77;9.15;;;6.60;99.90;;;;;;5090992;28;20040;-68
2022/04/19 04:37:07;;;;;;;13.82;9.65;;;6.60;99.90;;;;;;5088245;28;20063;-69
2022/04/19 04:39:33;;;;;;;13.35;9.68;;;6.60;99.90;;;;;;5089006;28;20115;-69
2022/04/19 04:41:58;;;;;;;15.32;10.25;;;6.60;99.90;;;;;;5090489;28;20109;-70
2022/04/19 04:44:24;;;;;;;12.65;9.18;;;6.60;99.90;;;;;;5085284;28;20649;-70
2022/04/19 04:49:37;;;;;;;14.20;9.80;;;6.60;99.90;;;;;;5087165;28;20120;-68
2022/04/19 04:52:07;;;;;;;13.85;9.48;;;6.60;99.90;;;;;;5070505;28;20083;-70
2022/04/19 04:54:34;;;;;;;13.40;9.15;;;6.60;99.90;;;;;;5083183;28;20101;-68
2022/04/19 04:57:01;;;;;;;16.45;10.35;;;6.60;99.90;;;;;;5091012;28;20089;-68
2022/04/19 04:59:27;;;;;;;14.40;9.82;;;6.70;99.90;;;;;;5087032;28;20456;-66
2022/04/19 05:01:52;;;;;;;14.55;10.35;;;7.10;99.90;;;;;;5084593;28;20135;-65
2022/04/19 05:04:18;;;;;;;17.98;11.75;;;7.60;99.90;;;;;;5086893;28;20047;-66
2022/04/19 05:06:44;;;;;;;14.43;10.60;;;8.40;99.90;;;;;;5088945;28;20032;-65
2022/04/19 05:09:10;;;;;;;16.38;11.25;;;9.10;99.90;;;;;;5088141;28;20071;-66
2022/04/19 05:11:36;;;;;;;17.27;10.98;;;9.60;99.90;;;;;;5085281;28;20094;-66
2022/04/19 05:14:02;;;;;;;18.42;11.90;;;9.80;99.90;;;;;;5084646;28;20101;-66
2022/04/19 05:16:27;;;;;;;17.73;11.77;;;9.70;99.90;;;;;;5089189;28;20147;-65
2022/04/19 05:18:53;;;;;;;15.60;10.40;;;9.30;99.90;;;;;;5086570;28;20160;-67
2022/04/19 05:21:18;;;;;;;15.65;10.32;;;9.20;99.90;;;;;;5087341;28;20040;-64
2022/04/19 05:23:44;;;;;;;15.75;10.25;;;9.00;99.90;;;;;;5086641;28;20498;-67
2022/04/19 05:26:09;;;;;;;15.55;10.48;;;8.90;99.90;;;;;;5087983;28;20044;-66
2022/04/19 05:28:35;;;;;;;17.83;10.73;;;8.70;99.90;;;;;;5084791;28;20056;-67
2022/04/19 05:31:01;;;;;;;15.27;9.43;;;8.70;99.90;;;;;;5087745;28;20490;-67
2022/04/19 05:33:26;;;;;;;14.35;9.95;;;8.70;99.90;;;;;;5086024;28;20082;-67
2022/04/19 05:35:52;;;;;;;16.20;10.18;;;8.80;99.90;;;;;;5087680;28;20048;-67
2022/04/19 05:38:17;;;;;;;14.05;9.57;;;8.70;99.90;;;;;;5088422;28;20369;-68
2022/04/19 05:40:43;;;;;;;17.63;11.00;;;8.80;99.90;;;;;;5086394;28;20040;-67
2022/04/19 05:43:09;;;;;;;16.92;10.48;;;8.80;99.90;;;;;;5080397;28;20062;-68
2022/04/19 05:45:34;;;;;;;16.35;10.82;;;8.90;99.90;;;;;;5091189;28;20048;-67
2022/04/19 05:48:00;;;;;;;16.20;10.40;;;8.80;99.90;;;;;;5088708;28;20044;-66
2022/04/19 05:50:26;;;;;;;20.35;11.75;;;8.90;99.90;;;;;;5086939;28;20116;-68
2022/04/19 05:52:52;;;;;;;19.98;11.15;;;8.80;99.90;;;;;;5090376;28;20036;-67
2022/04/19 05:55:17;;;;;;;16.33;11.52;;;8.80;99.90;;;;;;5087786;28;20044;-67
2022/04/19 05:57:43;;;;;;;17.20;11.00;;;8.70;99.90;;;;;;5088797;28;20500;-67
2022/04/19 06:00:09;;;;;;;16.50;11.32;;;8.80;99.90;;;;;;5088829;28;20032;-67
2022/04/19 06:05:19;;;;;;;16.75;10.93;;;8.90;99.90;;;;;;5081978;28;20414;-67
2022/04/19 06:07:46;;;;;;;19.25;11.20;;;9.00;99.90;;;;;;5088355;28;20044;-67
2022/04/19 06:10:12;;;;;;;16.05;11.00;;;9.10;99.90;;;;;;5088644;28;20032;-67
2022/04/19 06:12:40;;;;;;;16.27;10.63;;;9.10;99.90;;;;;;5090371;28;20044;-67
2022/04/19 06:15:07;;;;;;;16.35;10.18;;;9.20;99.90;;;;;;5088855;28;20048;-67
2022/04/19 06:17:35;;;;;;;13.95;9.98;;;9.30;99.90;;;;;;5088524;28;20040;-68
2022/04/19 06:20:01;;;;;;;17.77;10.90;;;9.30;99.90;;;;;;5087945;28;20388;-67
2022/04/19 06:22:27;;;;;;;17.02;10.50;;;9.40;99.90;;;;;;5086266;28;20055;-67
2022/04/19 06:24:55;;;;;;;15.63;10.57;;;9.40;99.90;;;;;;5089166;28;20040;-67
2022/04/19 06:27:21;;;;;;;16.83;11.07;;;9.50;99.90;;;;;;5087192;28;20169;-68
2022/04/19 06:29:47;;;;;;;15.75;10.55;;;9.60;99.90;;;;;;5086461;28;20123;-67
2022/04/19 06:32:13;;;;;;;16.77;10.80;;;9.70;99.90;;;;;;5088574;28;20504;-67
2022/04/19 06:34:39;;;;;;;19.05;11.35;;;9.80;99.90;;;;;;5081901;28;20048;-68
2022/04/19 06:37:05;;;;;;;17.33;10.90;;;9.80;99.90;;;;;;5087477;28;20100;-68
2022/04/19 06:39:31;;;;;;;16.42;10.55;;;9.90;99.90;;;;;;5086732;28;20414;-67
2022/04/19 06:41:56;;;;;;;16.55;10.98;;;10.00;99.90;;;;;;5088201;28;20051;-68
2022/04/19 06:44:22;;;;;;;16.60;10.95;;;10.10;99.90;;;;;;5086532;28;20700;-69
2022/04/19 06:46:49;;;;;;;16.30;10.10;;;10.10;99.90;;;;;;5088701;28;20052;-68
2022/04/19 06:49:15;;;;;;;15.20;10.40;;;10.20;99.90;;;;;;5086108;28;20565;-67
2022/04/19 06:51:41;;;;;;;15.82;10.57;;;10.30;99.90;;;;;;5086823;28;20170;-67
2022/04/19 06:54:07;;;;;;;17.17;11.77;;;10.40;99.90;;;;;;5084786;28;20513;-67
2022/04/19 06:56:33;;;;;;;17.10;10.73;;;10.50;99.90;;;;;;5088434;28;20078;-67
2022/04/19 06:58:59;;;;;;;16.05;10.57;;;10.60;99.90;;;;;;5083914;28;20423;-68
2022/04/19 07:01:26;;;;;;;15.55;10.23;;;10.70;99.90;;;;;;5088276;28;20051;-67
2022/04/19 07:03:52;;;;;;;16.77;10.57;;;10.80;99.90;;;;;;5086399;28;20044;-68
2022/04/19 07:06:18;;;;;;;15.27;9.82;;;10.80;99.90;;;;;;5082225;28;20125;-67
2022/04/19 07:08:44;;;;;;;15.23;10.27;;;10.90;99.90;;;;;;5082192;28;20040;-69
2022/04/19 07:11:12;;;;;;;16.27;10.23;;;11.00;99.90;;;;;;5084611;28;20071;-68
2022/04/19 07:13:38;;;;;;;14.30;10.00;;;11.10;99.90;;;;;;5087992;28;20451;-68
2022/04/19 07:16:07;;;;;;;13.98;9.35;;;11.30;99.90;;;;;;5084557;28;20040;-68
2022/04/19 07:18:33;;;;;;;14.98;10.30;;;11.30;99.90;;;;;;5087263;28;20142;-69
2022/04/19 07:26:45;;;;;;;13.80;9.40;;;11.60;99.90;;;;;;5087807;28;20474;-68
2022/04/19 07:29:11;;;;;;;15.43;9.23;;;11.70;99.90;;;;;;5086382;28;20139;-69
2022/04/19 07:31:38;;;;;;;13.88;9.30;;;11.90;99.90;;;;;;5088507;28;20086;-69
2022/04/19 07:34:04;;;;;;;13.48;8.68;;;12.00;99.60;;;;;;5087614;28;20037;-69
2022/04/19 07:36:29;;;;;;;13.00;8.60;;;12.10;99.40;;;;;;5088484;28;20082;-69
2022/04/19 07:38:57;;;;;;;12.45;8.30;;;12.20;99.20;;;;;;5088865;28;20040;-69
2022/04/19 07:41:23;;;;;;;14.63;8.57;;;12.30;99.20;;;;;;5086205;28;20125;-69
2022/04/19 07:43:49;;;;;;;12.40;7.90;;;12.40;99.20;;;;;;5087880;28;20075;-69
2022/04/19 07:46:18;;;;;;;11.25;7.63;;;12.50;98.30;;;;;;5085545;28;20036;-69
2022/04/19 07:48:44;;;;;;;12.00;8.05;;;12.60;96.90;;;;;;5085193;28;20040;-69
2022/04/19 07:51:15;;;;;;;14.80;7.60;;;12.70;97.30;;;;;;5087036;28;20055;-70
2022/04/19 07:53:41;;;;;;;12.23;7.70;;;12.80;97.40;;;;;;5087758;28;20047;-69
2022/04/19 07:56:06;;;;;;;10.85;7.00;;;13.00;97.50;;;;;;5085546;28;20059;-70
2022/04/19 07:58:32;;;;;;;11.00;6.97;;;13.20;97.10;;;;;;5087229;28;20051;-70
2022/04/19 08:00:58;;;;;;;12.43;7.53;;;13.30;96.40;;;;;;5084280;28;20032;-69
2022/04/19 08:03:24;;;;;;;10.40;7.00;;;13.40;96.30;;;;;;5087697;28;20040;-69
2022/04/19 08:05:51;;;;;;;11.75;6.82;;;13.60;96.70;;;;;;5085632;28;20265;-69
2022/04/19 08:08:17;;;;;;;9.77;6.25;;;13.70;94.90;;;;;;5084430;28;20368;-70
2022/04/19 08:10:43;;;;;;;11.18;6.85;;;13.80;93.80;;;;;;5087250;28;20073;-70
2022/04/19 08:13:09;;;;;;;10.55;6.53;;;13.90;92.60;;;;;;5085781;28;20066;-69
2022/04/19 08:15:35;;;;;;;9.75;6.50;;;14.00;90.60;;;;;;5087199;28;20119;-71
2022/04/19 08:18:00;;;;;;;11.43;6.68;;;14.10;91.00;;;;;;5086826;28;20048;-70
2022/04/19 08:20:26;;;;;;;11.57;6.68;;;14.20;91.00;;;;;;5089576;28;20154;-69
2022/04/19 08:22:51;;;;;;;11.57;6.75;;;14.30;90.60;;;;;;5088388;28;20070;-69
2022/04/19 08:25:17;;;;;;;9.73;6.13;;;14.40;88.90;;;;;;5089079;28;20429;-71
2022/04/19 08:27:46;;;;;;;9.95;5.97;;;14.40;90.20;;;;;;5088600;28;20530;-69
2022/04/19 08:30:13;;;;;;;10.43;6.63;;;14.50;82.40;;;;;;5088425;28;20102;-69
2022/04/19 08:32:38;;;;;;;9.88;6.13;;;14.50;82.90;;;;;;5090120;28;20040;-69
2022/04/19 08:35:05;;;;;;;11.73;6.50;;;14.60;86.50;;;;;;5088871;28;20379;-69
2022/04/19 08:37:36;;;;;;;11.07;6.47;;;14.70;82.90;;;;;;5087768;28;20089;-69
2022/04/19 08:40:07;;;;;;;12.82;6.53;;;14.80;81.20;;;;;;5090817;28;20083;-69
2022/04/19 08:42:34;;;;;;;9.30;5.63;;;14.80;78.60;;;;;;5089214;28;20188;-70
2022/04/19 08:45:03;;;;;;;10.07;5.60;;;14.80;79.60;;;;;;5089631;28;20051;-70
2022/04/19 08:47:36;;;;;;;10.23;5.85;;;14.80;78.50;;;;;;5084081;28;20131;-68
2022/04/19 08:50:07;;;;;;;10.10;5.90;;;14.90;78.10;;;;;;5089043;28;20063;-70
2022/04/19 08:52:34;;;;;;;9.18;5.20;;;14.90;76.80;;;;;;5091121;28;20036;-69
2022/04/19 08:57:45;;;;;;;11.43;5.60;;;15.00;79.70;;;;;;5087447;28;20421;-69
2022/04/19 09:00:12;;;;;;;9.32;5.28;;;15.10;79.40;;;;;;5088055;28;20072;-69
2022/04/19 09:02:38;;;;;;;9.18;5.00;;;15.10;77.40;;;;;;5088650;28;20039;-69
2022/04/19 09:05:18;;;;;;;9.38;4.60;;;15.20;77.90;;;;;;5087201;28;20438;-68
2022/04/19 09:07:45;;;;;;;10.43;5.20;;;15.20;75.70;;;;;;5088684;28;20044;-69
2022/04/19 09:10:15;;;;;;;7.53;4.03;;;15.30;75.10;;;;;;5088703;28;20051;-70
2022/04/19 09:13:04;;;;;;;7.93;4.40;;;15.30;73.50;;;;;;5089327;28;20044;-69
2022/04/19 09:15:38;;;;;;;10.57;4.40;;;15.40;75.00;;;;;;5089300;28;20120;-69
2022/04/19 09:18:04;;;;;;;9.18;4.38;;;15.40;73.00;;;;;;5085465;28;20130;-69
2022/04/19 09:20:31;;;;;;;8.18;4.50;;;15.40;72.50;;;;;;5088408;28;20080;-69
2022/04/19 09:23:05;;;;;;;8.25;4.40;;;15.50;72.20;;;;;;5086988;28;20491;-66
2022/04/19 09:25:32;;;;;;;8.45;4.40;;;15.60;72.60;;;;;;5086386;28;20408;-66
2022/04/19 09:27:59;;;;;;;7.35;3.70;;;15.60;74.50;;;;;;5087088;28;20380;-66
2022/04/19 09:30:25;;;;;;;7.40;4.10;;;15.70;72.70;;;;;;5086408;28;20051;-67
2022/04/19 09:33:10;;;;;;;7.82;3.65;;;15.70;74.20;;;;;;5087137;28;20060;-68
2022/04/19 09:35:56;;;;;;;7.30;3.92;;;15.80;69.40;;;;;;5087308;28;20400;-68
2022/04/19 09:38:38;;;;;;;8.32;4.07;;;15.90;70.80;;;;;;5088756;28;20048;-67
2022/04/19 09:41:09;;;;;;;7.68;4.55;;;16.00;72.30;;;;;;5081104;28;20486;-67
2022/04/19 09:43:35;;;;;;;7.25;4.35;;;16.00;71.00;;;;;;5088974;28;20459;-67
2022/04/19 09:46:03;;;;;;;7.32;4.45;;;16.00;70.60;;;;;;5087754;28;20044;-68
2022/04/19 09:48:32;;;;;;;6.47;4.43;;;16.00;72.00;;;;;;5087420;28;20136;-68
2022/04/19 09:51:06;;;;;;;8.35;4.47;;;16.00;71.10;;;;;;5086879;28;20082;-67
2022/04/19 09:53:48;;;;;;;8.05;4.75;;;16.10;69.90;;;;;;5088454;28;20055;-68
2022/04/19 09:56:16;;;;;;;8.10;5.03;;;16.10;70.70;;;;;;5086563;28;20079;-67
2022/04/19 09:58:44;;;;;;;9.85;4.43;;;16.10;71.00;;;;;;5086427;28;20464;-67
2022/04/19 10:08:10;;;;;;;7.38;4.63;;;16.10;69.00;;;;;;5086936;28;20048;-67
2022/04/19 10:09:47;;;;;;;7.03;4.15;;;16.20;65.80;;;;;;5087302;28;20367;-67
2022/04/19 10:12:13;;;;;;;7.03;3.78;;;16.20;64.90;;;;;;5080289;28;20119;-68
2022/04/19 10:14:39;;;;;;;4.47;2.50;;;16.30;67.00;;;;;;5086952;28;20198;-67
2022/04/19 10:17:05;;;;;;;6.72;2.50;;;16.30;64.90;;;;;;5088300;28;20055;-68
2022/04/19 10:19:32;;;;;;;5.95;3.20;;;16.30;63.90;;;;;;5088043;28;20036;-66
2022/04/19 10:22:05;;;;;;;6.35;3.00;;;16.40;65.20;;;;;;5085883;28;20475;-67
2022/04/19 10:24:46;;;;;;;6.25;3.30;;;16.50;65.50;;;;;;5086091;28;20470;-67
2022/04/19 10:27:12;;;;;;;4.97;2.92;;;16.40;63.70;;;;;;5082689;28;20040;-67
2022/04/19 10:29:37;;;;;;;6.45;3.38;;;16.40;63.90;;;;;;5085937;28;20105;-67
2022/04/19 10:32:08;;;;;;;5.63;3.00;;;16.50;64.30;;;;;;5087776;28;20044;-67
2022/04/19 10:34:35;;;;;;;5.68;2.35;;;16.50;62.40;;;;;;5086561;28;20044;-66
2022/04/19 10:37:16;;;;;;;4.15;2.40;;;16.50;62.60;;;;;;5086326;28;20050;-67
2022/04/19 10:39:46;;;;;;;4.63;2.40;;;16.60;61.00;;;;;;5078667;28;20177;-67
2022/04/19 10:42:37;;;;;;;3.83;2.17;;;16.70;61.30;;;;;;5081024;28;20090;-67
2022/04/19 10:45:12;;;;;;;4.03;1.80;;;16.70;60.40;;;;;;5087317;28;20055;-67
2022/04/19 10:47:53;;;;;;;3.13;1.58;;;16.80;61.20;;;;;;5074074;28;20036;-68
2022/04/19 10:50:28;;;;;;;5.18;2.10;;;16.80;58.90;;;;;;5085697;28;20051;-67
2022/04/19 10:53:03;;;;;;;7.10;2.50;;;16.90;57.80;;;;;;5084587;28;20055;-67
2022/04/19 10:55:30;;;;;;;5.45;2.10;;;16.90;57.90;;;;;;5089290;28;20056;-68
2022/04/19 11:00:57;;;;;;;4.30;2.30;;;17.00;54.20;;;;;;5086728;28;20044;-68
2022/04/19 11:03:25;;;;;;;4.82;1.98;;;17.00;53.30;;;;;;5085588;28;20756;-67
2022/04/19 11:05:55;;;;;;;4.95;2.45;;;17.00;55.30;;;;;;5085995;28;20890;-68
2022/04/19 11:08:26;;;;;;;3.63;2.10;;;17.00;53.60;;;;;;5086472;28;20047;-67
2022/04/19 11:11:21;;;;;;;3.92;2.05;;;17.00;54.20;;;;;;5083967;28;20127;-67
2022/04/19 11:14:16;;;;;;;3.95;1.73;;;17.10;54.20;;;;;;5080130;28;20480;-67
2022/04/19 11:16:41;;;;;;;4.13;1.73;;;17.30;56.60;;;;;;5086864;28;20036;-68
2022/04/19 11:19:25;;;;;;;4.50;2.08;;;17.40;56.70;;;;;;5084878;28;20120;-68
2022/04/19 11:21:58;;;;;;;4.40;1.83;;;17.50;56.20;;;;;;5084081;28;20567;-68
2022/04/19 11:25:03;;;;;;;4.35;1.90;;;17.60;55.20;;;;;;5074753;28;20131;-69
2022/04/19 11:27:53;;;;;;;4.63;1.75;;;17.60;54.50;;;;;;5085784;28;20166;-67
2022/04/19 11:30:23;;;;;;;4.45;2.22;;;17.70;53.60;;;;;;5087648;28;20040;-68
2022/04/19 11:32:52;;;;;;;5.97;2.30;;;17.70;54.50;;;;;;5087055;28;20341;-68
2022/04/19 11:35:18;;;;;;;4.43;1.70;;;17.70;53.30;;;;;;5086723;28;20059;-69
2022/04/19 11:37:45;;;;;;;3.17;1.52;;;17.70;51.60;;;;;;5087144;28;20253;-69
2022/04/19 11:48:47;;;;;;;3.63;1.37;;;17.70;50.30;;;;;;5083781;28;20051;-69
2022/04/19 11:51:15;;;;;;;3.88;1.85;;;17.70;49.60;;;;;;5085681;28;20543;-69
2022/04/19 11:53:41;;;;;;;3.63;1.60;;;17.70;51.50;;;;;;5077987;28;20180;-69
2022/04/19 11:56:07;;;;;;;4.15;1.75;;;17.70;52.10;;;;;;5089855;28;20474;-68
2022/04/19 11:58:34;;;;;;;3.85;1.70;;;17.80;52.60;;;;;;5087646;28;20529;-68
2022/04/19 12:01:05;;;;;;;3.35;1.60;;;17.90;52.80;;;;;;5091273;28;20047;-67
2022/04/19 12:03:39;;;;;;;6.30;1.88;;;17.90;51.80;;;;;;5091285;28;20402;-69
2022/04/19 12:06:08;;;;;;;5.23;1.83;;;17.80;50.60;;;;;;5085248;28;20052;-70
2022/04/19 12:08:41;;;;;;;3.17;1.60;;;17.90;52.20;;;;;;5087248;28;20049;-68
2022/04/19 12:11:08;;;;;;;5.80;1.70;;;18.00;52.80;;;;;;5087874;28;20064;-69
2022/04/19 12:13:35;;;;;;;4.25;1.67;;;18.00;52.70;;;;;;5088179;28;20159;-69
2022/04/19 12:16:03;;;;;;;5.00;1.55;;;17.90;51.30;;;;;;5089818;28;20123;-69
2022/04/19 12:18:38;;;;;;;3.15;1.70;;;18.00;52.20;;;;;;5088482;28;20085;-68
2022/04/19 12:21:06;;;;;;;2.40;1.58;;;18.00;51.90;;;;;;5088819;28;20054;-67
2022/04/19 12:23:34;;;;;;;6.38;1.55;;;18.10;52.20;;;;;;5089826;28;20043;-66
2022/04/19 12:26:02;;;;;;;3.50;1.30;;;18.20;53.00;;;;;;5089547;28;20052;-67
2022/04/19 12:28:46;;;;;;;4.72;1.40;;;18.30;54.10;;;;;;5091405;28;20103;-67
2022/04/19 12:31:39;;;;;;;3.70;1.43;;;18.40;53.40;;;;;;5089038;28;20102;-67
2022/04/19 12:34:06;;;;;;;3.95;2.13;;;18.50;53.90;;;;;;5083665;28;20052;-68
2022/04/19 12:37:06;;;;;;;2.95;1.60;;;18.40;52.20;;;;;;5089140;28;20046;-67
2022/04/19 12:39:32;;;;;;;2.47;1.40;;;18.40;53.80;;;;;;5087047;28;20048;-67
2022/04/19 12:42:07;;;;;;;3.03;1.45;;;18.40;53.60;;;;;;5090378;28;20036;-68
2022/04/19 12:44:35;;;;;;;5.72;1.50;;;18.40;53.10;;;;;;5082656;28;20097;-68
2022/04/19 12:47:02;;;;;;;3.67;1.50;;;18.40;53.10;;;;;;5089049;28;20352;-68
2022/04/19 12:49:30;;;;;;;3.83;1.60;;;18.40;51.90;;;;;;5088322;28;20044;-68
2022/04/19 12:52:05;;;;;;;4.88;1.80;;;18.40;53.00;;;;;;5088352;28;20040;-68
2022/04/19 12:54:32;;;;;;;4.03;1.80;;;18.40;52.90;;;;;;5089227;28;20060;-68
2022/04/19 12:57:03;;;;;;;3.83;1.83;;;18.30;52.10;;;;;;5086595;28;20414;-67
2022/04/19 12:59:31;;;;;;;2.70;1.45;;;18.40;52.40;;;;;;5074199;28;20040;-67
2022/04/19 13:01:57;;;;;;;3.90;1.40;;;18.30;51.30;;;;;;5088677;28;20036;-68
2022/04/19 13:04:23;;;;;;;3.25;1.40;;;18.30;53.00;;;;;;5088007;28;20048;-67
2022/04/19 13:12:19;;;;;;;3.22;1.42;;;18.40;52.40;;;;;;5090434;28;20051;-66
2022/04/19 13:14:46;;;;;;;3.00;1.30;;;18.50;52.40;;;;;;5090652;28;20128;-66
2022/04/19 13:17:15;;;;;;;2.75;1.33;;;18.70;53.80;;;;;;5089416;28;20135;-66
2022/04/19 13:19:42;;;;;;;3.08;1.55;;;18.80;53.70;;;;;;5086570;28;20118;-67
2022/04/19 13:22:11;;;;;;;2.67;1.25;;;18.80;53.10;;;;;;5087412;28;20044;-67
2022/04/19 13:24:38;;;;;;;3.20;1.65;;;19.00;54.00;;;;;;5087406;28;20044;-67
2022/04/19 13:27:06;;;;;;;3.50;1.73;;;19.00;53.60;;;;;;5086992;28;20086;-67
2022/04/19 13:29:35;;;;;;;3.85;1.70;;;19.10;53.40;;;;;;5087325;28;20052;-67
2022/04/19 13:32:01;;;;;;;5.85;1.63;;;19.00;51.80;;;;;;5081986;28;20151;-67